Latest Weather Observations for Edenhope

IDV60801

Issued at 7:03 pm EST Thursday 27 April 2017 (issued every 30 minutes, with the page automatically refreshed every 10 minutes)

About weather observations | Map of weather stations | Latest weather observations for VIC | Other Formats
Station Details ID: 079099 Name: EDENHOPE AIRPORT Lat: -37.02 Lon: 141.27 Height: 155.0 m
Data from the previous 72 hours. | See also: Recent months at Edenhope
Date/Time
EST
Temp
°C
App
Temp
°C
Dew
Point
°C
Rel
Hum
%
Delta-T
°C
Wind Press
QNH
hPa
Press
MSL
hPa
Rain since
9am
mm
Dir  Spd
km/h
Gust
km/h
Spd
kts
Gust
kts
27/07:00pm 10.3 9.1 8.1 86 1.1 W 4 6 2 3 - - 0.0
27/06:30pm 10.8 9.5 7.7 81 1.5 W 4 4 2 2 - - 0.0
27/06:00pm 11.6 10.4 7.9 78 1.8 WSW 4 4 2 2 - - 0.0
27/05:30pm 12.8 10.2 7.7 71 2.5 SW 11 15 6 8 - - 0.0
27/05:00pm 13.5 10.3 8.4 71 2.6 SW 15 22 8 12 - - 0.0
27/04:30pm 13.6 10.9 9.1 74 2.3 WSW 13 20 7 11 - - 0.0
27/04:00pm 13.5 11.7 9.4 76 2.1 WSW 9 13 5 7 - - 0.0
27/03:30pm 13.5 10.5 9.4 76 2.1 WSW 15 20 8 11 - - 0.0
27/03:00pm 12.9 10.7 9.4 79 1.8 SW 11 17 6 9 - - 0.0
27/02:30pm 12.6 10.5 11.0 90 0.8 SW 13 28 7 15 - - 0.0
27/02:00pm 14.8 11.6 9.8 72 2.6 WSW 17 24 9 13 - - 0.0
27/01:30pm 13.0 10.4 10.7 86 1.2 WSW 15 22 8 12 - - 0.0
27/01:00pm 13.4 10.3 8.9 74 2.3 W 15 24 8 13 - - 0.0
27/12:30pm 12.0 9.1 9.6 85 1.2 WSW 15 24 8 13 - - 0.0
27/12:00pm 13.6 10.2 7.6 67 3.0 WSW 15 24 8 13 - - 0.0
27/11:30am 12.8 9.9 8.3 74 2.2 WSW 13 20 7 11 - - 0.0
27/11:00am 12.9 10.5 8.6 75 2.2 WSW 11 17 6 9 - - 0.0
27/10:30am 11.8 9.3 8.1 78 1.8 W 11 15 6 8 - - 0.0
27/10:00am 10.6 8.5 8.4 86 1.1 W 9 13 5 7 - - 0.0
27/09:30am 9.0 7.3 8.2 95 0.4 WSW 7 11 4 6 - - 0.0
27/09:00am 8.3 6.2 8.2 99 0.0 WSW 9 11 5 6 - - 0.2
27/08:30am 7.0 5.1 6.9 99 0.0 WSW 6 7 3 4 - - 0.2
27/08:00am 5.2 3.3 4.9 98 0.1 WSW 4 6 2 3 - - 0.2
27/07:30am 4.5 2.5 4.2 98 0.1 S 4 4 2 2 - - 0.2
27/07:00am 4.2 2.5 3.8 97 0.2 WSW 2 4 1 2 - - 0.2
27/06:30am 5.1 3.2 4.7 97 0.2 WSW 4 6 2 3 - - 0.2
27/06:00am 4.9 2.6 4.6 98 0.1 WSW 6 7 3 4 - - 0.2
27/05:30am 5.1 2.8 4.7 97 0.2 WSW 6 6 3 3 - - 0.2
27/05:00am 5.9 3.8 5.6 98 0.1 WSW 6 9 3 5 - - 0.2
27/04:30am 6.6 4.6 6.3 98 0.1 W 6 7 3 4 - - 0.2
27/04:00am 6.4 4.2 6.1 98 0.1 W 7 11 4 6 - - 0.2
27/03:30am 6.2 4.9 5.9 98 0.1 W 2 6 1 3 - - 0.2
27/03:00am 6.2 4.1 5.9 98 0.1 WSW 6 7 3 4 - - 0.2
27/02:30am 5.6 3.8 5.2 97 0.2 WSW 4 6 2 3 - - 0.2
27/02:00am 5.9 4.1 5.5 97 0.2 WSW 4 6 2 3 - - 0.2
27/01:30am 5.5 3.6 4.9 96 0.3 WSW 4 6 2 3 - - 0.2
27/01:00am 5.7 3.8 5.0 95 0.3 W 4 6 2 3 - - 0.2
27/12:30am 5.8 3.9 4.8 93 0.4 W 4 6 2 3 - - 0.2
27/12:00am 6.6 4.4 5.4 92 0.5 WSW 6 6 3 3 - - 0.2
 
Date/Time
EST
Temp
°C
App
Temp
°C
Dew
Point
°C
Rel
Hum
%
Delta-T
°C
Wind Press
QNH
hPa
Press
MSL
hPa
Rain since
9am
mm
Dir  Spd
km/h
Gust
km/h
Spd
kts
Gust
kts
26/11:30pm 7.1 5.0 5.6 90 0.7 WSW 6 9 3 5 - - 0.2
26/11:00pm 7.7 5.5 6.3 91 0.6 SW 7 11 4 6 - - 0.2
26/10:30pm 6.7 4.5 5.5 92 0.5 WSW 6 7 3 4 - - 0.2
26/10:00pm 6.3 4.4 4.8 90 0.7 WSW 4 6 2 3 - - 0.2
26/09:30pm 6.6 4.3 4.8 88 0.8 WSW 6 7 3 4 - - 0.2
26/09:00pm 7.0 5.1 5.0 87 0.9 SW 4 6 2 3 - - 0.2
26/08:30pm 7.3 5.1 5.4 88 0.9 WSW 6 7 3 4 - - 0.2
26/08:00pm 7.7 5.6 6.0 89 0.8 WSW 6 9 3 5 - - 0.2
26/07:30pm 7.6 5.5 5.6 87 0.9 SW 6 9 3 5 - - 0.2
26/07:00pm 8.4 5.7 5.7 83 1.2 SW 9 13 5 7 - - 0.2
26/06:30pm 9.0 5.9 5.6 79 1.6 SW 11 19 6 10 - - 0.2
26/06:00pm 9.3 5.4 5.3 76 1.8 SW 15 20 8 11 - - 0.2
26/05:30pm 9.9 6.2 4.7 70 2.3 SSW 13 22 7 12 - - 0.2
26/05:00pm 10.2 5.8 4.8 69 2.5 SW 17 26 9 14 - - 0.2
26/04:30pm 10.1 5.2 4.0 66 2.7 SSW 19 30 10 16 - - 0.2
26/04:00pm 10.4 4.9 3.9 64 2.9 SSW 22 41 12 22 - - 0.2
26/03:30pm 11.1 7.0 4.3 63 3.1 SSW 15 26 8 14 - - 0.2
26/03:00pm 9.5 3.5 5.1 74 2.0 S 26 43 14 23 - - 0.2
26/02:50pm 10.9 4.2 3.5 60 3.3 SSW 28 48 15 26 - - 0.2
26/02:30pm 12.2 6.0 2.4 51 4.3 SSW 24 46 13 25 - - 0.2
26/02:00pm 11.3 6.1 3.8 60 3.4 SW 20 30 11 16 - - 0.2
26/01:31pm 9.9 3.2 3.6 65 2.8 S 28 48 15 26 - - 0.2
26/01:30pm 9.9 2.8 3.4 64 2.8 S 30 48 16 26 - - 0.2
26/01:18pm 11.3 4.4 2.6 55 3.8 S 28 46 15 25 - - 0.2
26/01:00pm 12.8 7.7 4.3 56 3.9 SW 20 32 11 17 - - 0.2
26/12:30pm 12.0 6.4 3.3 55 3.9 S 22 39 12 21 - - 0.2
26/12:00pm 12.6 7.6 4.8 59 3.6 SSW 20 32 11 17 - - 0.2
26/11:30am 11.2 6.2 4.7 64 3.0 S 20 30 11 16 - - 0.2
26/11:00am 10.4 5.9 4.3 66 2.7 S 17 24 9 13 - - 0.2
26/10:35am 9.0 2.4 4.2 72 2.1 SSW 28 46 15 25 - - 0.2
26/10:30am 9.6 4.3 5.2 74 2.0 SSW 22 39 12 21 - - 0.2
26/10:00am 10.1 5.6 5.9 75 2.0 SSW 19 30 10 16 - - 0.2
26/09:30am 9.3 6.0 6.2 81 1.4 SSW 13 22 7 12 - - 0.2
26/09:00am 7.8 4.3 5.6 86 1.0 SSW 13 24 7 13 - - 8.8
26/08:30am 8.4 3.9 6.0 85 1.1 SW 19 30 10 16 - - 8.8
26/08:00am 7.2 3.8 5.7 90 0.7 SW 13 26 7 14 - - 8.8
26/07:30am 6.0 3.2 5.3 95 0.3 WSW 9 15 5 8 - - 8.6
26/07:00am 5.7 3.4 4.8 94 0.4 WSW 6 9 3 5 - - 8.6
26/06:30am 6.5 4.1 5.3 92 0.5 SW 7 11 4 6 - - 8.6
26/06:00am 7.1 3.3 5.6 90 0.7 SSW 15 22 8 12 - - 8.6
26/05:30am 6.9 3.0 5.4 90 0.7 SSW 15 22 8 12 - - 8.6
26/05:00am 7.3 3.9 5.9 91 0.6 SSW 13 22 7 12 - - 8.6
26/04:30am 7.1 3.3 5.7 91 0.6 SSW 15 20 8 11 - - 8.6
26/04:00am 7.3 3.9 5.8 90 0.7 SSW 13 22 7 12 - - 8.6
26/03:30am 7.7 3.6 6.3 91 0.6 SSW 17 32 9 17 - - 8.6
26/03:00am 8.4 3.2 7.3 93 0.5 SW 24 33 13 18 - - 8.2
26/02:30am 9.6 6.0 8.4 92 0.6 SW 17 26 9 14 - - 5.4
26/02:00am 9.6 6.5 8.7 94 0.4 WSW 15 22 8 12 - - 5.4
26/01:30am 9.8 6.4 9.0 95 0.4 WSW 17 30 9 16 - - 5.4
26/01:00am 9.7 7.7 8.6 93 0.5 SW 9 13 5 7 - - 5.4
26/12:30am 10.1 6.6 8.9 92 0.6 SSW 17 28 9 15 - - 5.2
26/12:00am 10.4 6.1 9.5 94 0.5 SW 22 39 12 21 - - 4.8
 
Date/Time
EST
Temp
°C
App
Temp
°C
Dew
Point
°C
Rel
Hum
%
Delta-T
°C
Wind Press
QNH
hPa
Press
MSL
hPa
Rain since
9am
mm
Dir  Spd
km/h
Gust
km/h
Spd
kts
Gust
kts
25/11:30pm 11.0 7.9 10.2 95 0.4 SW 17 24 9 13 - - 0.2
25/11:00pm 12.0 8.4 9.9 87 1.1 W 19 41 10 22 - - 0.2
25/10:30pm 12.3 10.0 10.4 88 1.0 WNW 13 22 7 12 - - 0.2
25/10:00pm 12.7 10.3 11.3 91 0.7 WNW 15 22 8 12 - - 0.2
25/09:30pm 12.8 10.8 11.4 91 0.7 NW 13 17 7 9 - - 0.2
25/09:00pm 12.7 10.7 11.4 92 0.7 NW 13 17 7 9 - - 0.2
25/08:30pm 12.4 11.1 11.1 92 0.7 WNW 9 19 5 10 - - 0.0
25/08:00pm 12.9 10.9 11.5 91 0.7 WNW 13 22 7 12 - - 0.0
25/07:30pm 12.6 10.9 11.3 92 0.7 W 11 15 6 8 - - 0.0
25/07:00pm 12.9 10.9 11.5 91 0.7 W 13 20 7 11 - - 0.0
25/06:30pm 13.9 10.6 11.6 86 1.2 W 20 28 11 15 - - 0.0
25/06:00pm 14.7 12.8 11.7 82 1.6 W 13 20 7 11 - - 0.0
25/05:30pm 14.9 12.3 12.0 83 1.6 W 17 33 9 18 - - 0.0
25/05:00pm 15.6 12.8 12.5 82 1.7 W 19 35 10 19 - - 0.0
25/04:30pm 15.1 11.3 12.4 84 1.5 WSW 24 37 13 20 - - 0.0
25/04:00pm 18.1 14.3 12.5 70 3.1 W 24 39 13 21 - - 0.0
25/03:30pm 16.4 13.3 13.5 83 1.6 W 22 39 12 21 - - 0.0
25/03:00pm 19.2 16.2 12.5 65 3.8 W 20 28 11 15 - - 0.0
25/02:30pm 16.9 15.7 12.8 77 2.3 WSW 11 17 6 9 - - 0.0
25/02:00pm 17.0 16.1 12.7 76 2.4 WSW 9 15 5 8 - - 0.0
25/01:30pm 17.6 16.0 12.7 73 2.7 WNW 13 17 7 9 - - 0.0
25/01:00pm 16.4 15.9 12.6 78 2.1 WSW 7 11 4 6 - - 0.0
25/12:30pm 16.9 15.6 12.6 76 2.4 W 11 15 6 8 - - 0.0
25/12:00pm 16.5 14.9 12.8 79 2.1 WSW 13 20 7 11 - - 0.0
25/11:30am 16.6 14.2 12.8 78 2.1 W 17 22 9 12 - - 0.0
25/11:00am 16.8 16.3 13.7 82 1.8 WSW 9 13 5 7 - - 0.0
25/10:30am 15.7 14.7 13.5 87 1.2 WSW 11 15 6 8 - - 0.0
25/10:00am 15.3 14.4 13.8 91 0.8 WSW 11 17 6 9 - - 0.0
25/09:30am 14.6 14.1 13.8 95 0.5 SW 9 11 5 6 - - 0.0
25/09:00am 13.9 13.8 13.4 97 0.3 SW 6 9 3 5 - - 27.2
25/08:30am 13.7 14.0 13.4 98 0.2 SW 4 7 2 4 - - 27.2
25/08:00am 13.5 13.4 13.3 99 0.1 SW 6 7 3 4 - - 27.2
25/07:30am 13.4 13.2 13.1 98 0.2 SSW 6 11 3 6 - - 27.2
25/07:00am 13.4 13.0 12.9 97 0.3 SSW 7 11 4 6 - - 27.2
25/06:30am 13.5 13.2 13.3 99 0.1 SW 7 13 4 7 - - 27.2
25/06:00am 13.4 13.1 13.2 99 0.1 SW 7 11 4 6 - - 27.2
25/05:30am 13.6 13.0 13.6 100 0.0 SW 9 17 5 9 - - 27.2
25/05:00am 13.8 13.7 13.8 100 0.0 WSW 7 11 4 6 - - 27.2
25/04:30am 13.9 13.1 13.9 100 0.0 SW 11 17 6 9 - - 27.2
25/04:00am 14.1 13.7 14.1 100 0.0 SW 9 15 5 8 - - 27.2
25/03:30am 14.1 14.1 14.1 100 0.0 WSW 7 11 4 6 - - 27.2
25/03:00am 14.1 13.7 14.1 100 0.0 WSW 9 15 5 8 - - 27.2
25/02:30am 14.2 13.5 14.2 100 0.0 WSW 11 15 6 8 - - 27.0
25/02:00am 14.5 14.6 14.5 100 0.0 WSW 7 11 4 6 - - 27.0
25/01:30am 14.6 14.8 14.6 100 0.0 WSW 7 11 4 6 - - 27.0
25/01:00am 14.8 15.6 14.8 100 0.0 WSW 4 6 2 3 - - 27.0
25/12:30am 14.9 15.2 14.9 100 0.0 WSW 7 11 4 6 - - 27.0
25/12:00am 15.1 15.4 15.1 100 0.0 WSW 7 9 4 5 - - 27.0
 
Date/Time
EST
Temp
°C
App
Temp
°C
Dew
Point
°C
Rel
Hum
%
Delta-T
°C
Wind Press
QNH
hPa
Press
MSL
hPa
Rain since
9am
mm
Dir  Spd
km/h
Gust
km/h
Spd
kts
Gust
kts
24/11:30pm 15.2 16.1 15.2 100 0.0 WSW 4 6 2 3 - - 27.0
24/11:00pm 15.3 15.9 15.3 100 0.0 W 6 7 3 4 - - 27.0
24/10:30pm 15.4 17.2 15.4 100 0.0 CALM 0 0 0 0 - - 27.0
24/10:00pm 15.5 16.6 15.5 100 0.0 W 4 6 2 3 - - 27.0
24/09:30pm 15.5 16.9 15.5 100 0.0 NNE 2 6 1 3 - - 27.0
24/09:00pm 15.4 16.0 15.4 100 0.0 NNE 6 7 3 4 - - 26.8
24/08:30pm 15.4 17.2 15.4 100 0.0 CALM 0 0 0 0 - - 26.8
24/08:00pm 15.3 16.7 15.3 100 0.0 NE 2 4 1 2 - - 26.8
24/07:30pm 15.1 16.8 15.1 100 0.0 CALM 0 4 0 2 - - 26.8

Other Formats:

Comma delimited format used in spreadsheet applications
http://www.bom.gov.au/fwo/IDV60801/IDV60801.95832.axf

JavaScript Object Notation format (JSON) in row-major order
http://www.bom.gov.au/fwo/IDV60801/IDV60801.95832.json